sensor_id;sensor_type;location;lat;lon;timestamp;pressure;altitude;pressure_sealevel;temperature;humidity
23361;BME280;11852;50.082;18.554;2023-03-13T00:00:11;98127.0;;;5.11;66.68
23361;BME280;11852;50.082;18.554;2023-03-13T00:02:33;98130.0;;;5.23;66.3
23361;BME280;11852;50.082;18.554;2023-03-13T00:03:40;98131.0;;;5.05;67.04
23361;BME280;11852;50.082;18.554;2023-03-13T00:04:47;98126.5;;;5.16;66.75
23361;BME280;11852;50.082;18.554;2023-03-13T00:05:54;98127.0;;;5.19;66.76
23361;BME280;11852;50.082;18.554;2023-03-13T00:07:01;98126.0;;;5.16;66.96
23361;BME280;11852;50.082;18.554;2023-03-13T00:08:07;98127.5;;;5.13;67.1
23361;BME280;11852;50.082;18.554;2023-03-13T00:09:15;98116.5;;;5.14;67.21
23361;BME280;11852;50.082;18.554;2023-03-13T00:10:21;98112.5;;;5.15;67.46
23361;BME280;11852;50.082;18.554;2023-03-13T00:11:28;98112.0;;;5.25;67.26
23361;BME280;11852;50.082;18.554;2023-03-13T00:12:35;98113.5;;;5.2;67.33
23361;BME280;11852;50.082;18.554;2023-03-13T00:13:42;98115.0;;;5.08;67.9
23361;BME280;11852;50.082;18.554;2023-03-13T00:14:48;98114.0;;;5.11;67.83
23361;BME280;11852;50.082;18.554;2023-03-13T00:15:59;98115.0;;;5.22;67.72
23361;BME280;11852;50.082;18.554;2023-03-13T00:17:05;98110.5;;;5.26;67.57
23361;BME280;11852;50.082;18.554;2023-03-13T00:18:13;98112.0;;;5.15;68.22
23361;BME280;11852;50.082;18.554;2023-03-13T00:19:19;98109.5;;;5.18;68.15
23361;BME280;11852;50.082;18.554;2023-03-13T00:20:28;98102.0;;;5.18;68.29
23361;BME280;11852;50.082;18.554;2023-03-13T00:21:34;98109.5;;;5.16;68.48
23361;BME280;11852;50.082;18.554;2023-03-13T00:22:41;98097.0;;;5.13;68.8
23361;BME280;11852;50.082;18.554;2023-03-13T00:23:48;98100.5;;;5.11;69.18
23361;BME280;11852;50.082;18.554;2023-03-13T00:24:54;98103.5;;;5.18;69.1
23361;BME280;11852;50.082;18.554;2023-03-13T00:26:05;98099.0;;;5.2;69.03
23361;BME280;11852;50.082;18.554;2023-03-13T00:27:08;98099.0;;;5.26;69.02
23361;BME280;11852;50.082;18.554;2023-03-13T00:28:15;98096.5;;;5.26;69.14
23361;BME280;11852;50.082;18.554;2023-03-13T00:29:22;98091.5;;;5.12;69.76
23361;BME280;11852;50.082;18.554;2023-03-13T00:30:30;98092.0;;;5.16;69.83
23361;BME280;11852;50.082;18.554;2023-03-13T00:31:36;98089.0;;;5.16;70.08
23361;BME280;11852;50.082;18.554;2023-03-13T00:32:44;98094.0;;;5.24;69.99
23361;BME280;11852;50.082;18.554;2023-03-13T00:33:51;98090.5;;;5.29;69.96
23361;BME280;11852;50.082;18.554;2023-03-13T00:34:57;98090.5;;;5.26;70.29
23361;BME280;11852;50.082;18.554;2023-03-13T00:36:06;98092.5;;;5.28;70.24
23361;BME280;11852;50.082;18.554;2023-03-13T00:37:11;98093.01;;;5.23;70.5
23361;BME280;11852;50.082;18.554;2023-03-13T00:38:19;98090.0;;;5.27;70.61
23361;BME280;11852;50.082;18.554;2023-03-13T00:39:26;98086.5;;;5.16;71.13
23361;BME280;11852;50.082;18.554;2023-03-13T00:40:33;98085.0;;;5.26;71.01
23361;BME280;11852;50.082;18.554;2023-03-13T00:41:40;98084.5;;;5.22;71.47
23361;BME280;11852;50.082;18.554;2023-03-13T00:42:47;98079.51;;;5.24;71.38
23361;BME280;11852;50.082;18.554;2023-03-13T00:43:53;98085.5;;;5.28;71.21
23361;BME280;11852;50.082;18.554;2023-03-13T00:45:00;98083.5;;;5.32;71.21
23361;BME280;11852;50.082;18.554;2023-03-13T00:46:07;98080.01;;;5.35;71.14
23361;BME280;11852;50.082;18.554;2023-03-13T00:47:15;98083.5;;;5.2;71.79
23361;BME280;11852;50.082;18.554;2023-03-13T00:48:22;98083.5;;;5.2;71.94
23361;BME280;11852;50.082;18.554;2023-03-13T00:49:29;98081.5;;;5.18;72.02
23361;BME280;11852;50.082;18.554;2023-03-13T00:50:35;98082.0;;;5.19;72.0
23361;BME280;11852;50.082;18.554;2023-03-13T00:51:42;98074.5;;;5.28;71.88
23361;BME280;11852;50.082;18.554;2023-03-13T00:52:49;98070.49;;;5.26;71.89
23361;BME280;11852;50.082;18.554;2023-03-13T00:53:57;98067.5;;;5.18;72.25
23361;BME280;11852;50.082;18.554;2023-03-13T00:55:03;98065.5;;;5.26;72.23
23361;BME280;11852;50.082;18.554;2023-03-13T00:56:13;98067.01;;;5.27;72.27
23361;BME280;11852;50.082;18.554;2023-03-13T00:57:19;98073.0;;;5.33;72.21
23361;BME280;11852;50.082;18.554;2023-03-13T00:58:28;98071.0;;;5.27;72.5
23361;BME280;11852;50.082;18.554;2023-03-13T00:59:34;98068.5;;;5.28;72.6
23361;BME280;11852;50.082;18.554;2023-03-13T01:00:41;98064.0;;;5.31;72.68
23361;BME280;11852;50.082;18.554;2023-03-13T01:01:48;98062.0;;;5.24;72.85
23361;BME280;11852;50.082;18.554;2023-03-13T01:02:55;98062.0;;;5.23;73.11
23361;BME280;11852;50.082;18.554;2023-03-13T01:04:03;98058.5;;;5.3;72.98
23361;BME280;11852;50.082;18.554;2023-03-13T01:05:09;98055.01;;;5.3;72.89
23361;BME280;11852;50.082;18.554;2023-03-13T01:06:16;98059.0;;;5.27;73.48
23361;BME280;11852;50.082;18.554;2023-03-13T01:07:22;98064.0;;;5.28;73.46
23361;BME280;11852;50.082;18.554;2023-03-13T01:08:29;98066.5;;;5.24;73.87
23361;BME280;11852;50.082;18.554;2023-03-13T01:09:36;98066.0;;;5.24;73.99
23361;BME280;11852;50.082;18.554;2023-03-13T01:10:43;98065.0;;;5.25;74.18
23361;BME280;11852;50.082;18.554;2023-03-13T01:11:50;98065.5;;;5.3;73.93
23361;BME280;11852;50.082;18.554;2023-03-13T01:12:57;98067.0;;;5.33;73.95
23361;BME280;11852;50.082;18.554;2023-03-13T01:14:05;98071.5;;;5.28;74.21
23361;BME280;11852;50.082;18.554;2023-03-13T01:15:10;98069.0;;;5.36;73.99
23361;BME280;11852;50.082;18.554;2023-03-13T01:16:18;98075.5;;;5.34;74.28
23361;BME280;11852;50.082;18.554;2023-03-13T01:17:24;98080.01;;;5.38;74.43
23361;BME280;11852;50.082;18.554;2023-03-13T01:18:32;98078.0;;;5.3;74.73
23361;BME280;11852;50.082;18.554;2023-03-13T01:19:38;98084.5;;;5.37;74.64
23361;BME280;11852;50.082;18.554;2023-03-13T01:20:45;98076.5;;;5.39;74.81
23361;BME280;11852;50.082;18.554;2023-03-13T01:21:52;98074.5;;;5.32;75.2
23361;BME280;11852;50.082;18.554;2023-03-13T01:22:58;98070.49;;;5.37;75.02
23361;BME280;11852;50.082;18.554;2023-03-13T01:24:05;98080.5;;;5.34;75.24
23361;BME280;11852;50.082;18.554;2023-03-13T01:25:12;98079.0;;;5.35;75.29
23361;BME280;11852;50.082;18.554;2023-03-13T01:26:19;98084.5;;;5.41;75.15
23361;BME280;11852;50.082;18.554;2023-03-13T01:27:26;98086.5;;;5.39;75.33
23361;BME280;11852;50.082;18.554;2023-03-13T01:28:33;98091.5;;;5.36;75.6
23361;BME280;11852;50.082;18.554;2023-03-13T01:29:39;98091.5;;;5.42;75.43
23361;BME280;11852;50.082;18.554;2023-03-13T01:30:46;98093.01;;;5.43;75.44
23361;BME280;11852;50.082;18.554;2023-03-13T01:31:53;98094.0;;;5.47;75.49
23361;BME280;11852;50.082;18.554;2023-03-13T01:33:00;98093.0;;;5.45;75.53
23361;BME280;11852;50.082;18.554;2023-03-13T01:34:08;98097.0;;;5.44;75.93
23361;BME280;11852;50.082;18.554;2023-03-13T01:35:14;98088.5;;;5.34;76.32
23361;BME280;11852;50.082;18.554;2023-03-13T01:36:21;98087.5;;;5.36;76.25
23361;BME280;11852;50.082;18.554;2023-03-13T01:37:27;98086.0;;;5.33;76.39
23361;BME280;11852;50.082;18.554;2023-03-13T01:38:35;98085.5;;;5.42;76.08
23361;BME280;11852;50.082;18.554;2023-03-13T01:39:41;98087.5;;;5.33;76.47
23361;BME280;11852;50.082;18.554;2023-03-13T01:40:48;98085.5;;;5.3;76.68
23361;BME280;11852;50.082;18.554;2023-03-13T01:41:56;98092.5;;;5.38;76.43
23361;BME280;11852;50.082;18.554;2023-03-13T01:43:11;98092.01;;;5.47;76.12
23361;BME280;11852;50.082;18.554;2023-03-13T01:46:44;98084.0;;;5.36;76.52
23361;BME280;11852;50.082;18.554;2023-03-13T01:47:50;98086.0;;;5.39;76.46
23361;BME280;11852;50.082;18.554;2023-03-13T01:49:06;98088.0;;;5.38;76.59
23361;BME280;11852;50.082;18.554;2023-03-13T01:50:11;98089.0;;;5.34;76.78
23361;BME280;11852;50.082;18.554;2023-03-13T01:52:25;98079.51;;;5.43;76.38
23361;BME280;11852;50.082;18.554;2023-03-13T01:53:32;98077.0;;;5.41;76.4
23361;BME280;11852;50.082;18.554;2023-03-13T01:54:42;98077.5;;;5.48;76.04
23361;BME280;11852;50.082;18.554;2023-03-13T01:55:48;98076.5;;;5.41;76.47
23361;BME280;11852;50.082;18.554;2023-03-13T01:57:02;98076.0;;;5.44;76.38
23361;BME280;11852;50.082;18.554;2023-03-13T01:58:07;98077.0;;;5.47;76.19
23361;BME280;11852;50.082;18.554;2023-03-13T01:59:16;98079.51;;;5.4;76.51
23361;BME280;11852;50.082;18.554;2023-03-13T02:00:24;98080.5;;;5.44;76.36
23361;BME280;11852;50.082;18.554;2023-03-13T02:01:28;98076.5;;;5.52;76.15
23361;BME280;11852;50.082;18.554;2023-03-13T02:02:35;98076.5;;;5.43;76.35
23361;BME280;11852;50.082;18.554;2023-03-13T02:03:42;98078.0;;;5.44;76.42
23361;BME280;11852;50.082;18.554;2023-03-13T02:04:49;98075.0;;;5.42;76.47
23361;BME280;11852;50.082;18.554;2023-03-13T02:05:55;98075.5;;;5.54;76.0
23361;BME280;11852;50.082;18.554;2023-03-13T02:07:04;98076.5;;;5.45;76.27
23361;BME280;11852;50.082;18.554;2023-03-13T02:08:17;98079.51;;;5.53;76.13
23361;BME280;11852;50.082;18.554;2023-03-13T02:09:20;98083.0;;;5.51;76.18
23361;BME280;11852;50.082;18.554;2023-03-13T02:10:26;98084.0;;;5.47;76.5
23361;BME280;11852;50.082;18.554;2023-03-13T02:11:39;98084.5;;;5.56;76.11
23361;BME280;11852;50.082;18.554;2023-03-13T02:12:43;98087.0;;;5.55;76.21
23361;BME280;11852;50.082;18.554;2023-03-13T02:13:49;98087.0;;;5.5;76.53
23361;BME280;11852;50.082;18.554;2023-03-13T02:14:57;98088.5;;;5.51;76.6
23361;BME280;11852;50.082;18.554;2023-03-13T02:16:03;98089.5;;;5.49;76.72
23361;BME280;11852;50.082;18.554;2023-03-13T02:17:10;98091.0;;;5.54;76.57
23361;BME280;11852;50.082;18.554;2023-03-13T02:18:17;98093.5;;;5.5;76.88
23361;BME280;11852;50.082;18.554;2023-03-13T02:20:40;98096.5;;;5.51;76.9
23361;BME280;11852;50.082;18.554;2023-03-13T02:21:58;98101.0;;;5.41;77.43
23361;BME280;11852;50.082;18.554;2023-03-13T02:24:27;98098.5;;;5.42;77.68
23361;BME280;11852;50.082;18.554;2023-03-13T02:26:43;98101.5;;;5.53;77.83
23361;BME280;11852;50.082;18.554;2023-03-13T02:27:56;98103.5;;;5.61;77.41
23361;BME280;11852;50.082;18.554;2023-03-13T02:29:00;98106.99;;;5.57;77.56
23361;BME280;11852;50.082;18.554;2023-03-13T02:30:08;98102.0;;;5.57;77.76
23361;BME280;11852;50.082;18.554;2023-03-13T02:31:14;98100.5;;;5.57;77.82
23361;BME280;11852;50.082;18.554;2023-03-13T02:32:22;98102.0;;;5.73;77.4
23361;BME280;11852;50.082;18.554;2023-03-13T02:33:29;98103.5;;;5.63;78.06
23361;BME280;11852;50.082;18.554;2023-03-13T02:34:37;98101.5;;;5.64;78.32
23361;BME280;11852;50.082;18.554;2023-03-13T02:35:43;98102.0;;;5.6;78.43
23361;BME280;11852;50.082;18.554;2023-03-13T02:36:50;98105.0;;;5.59;78.56
23361;BME280;11852;50.082;18.554;2023-03-13T02:37:58;98110.5;;;5.61;78.65
23361;BME280;11852;50.082;18.554;2023-03-13T02:39:03;98108.5;;;5.53;79.19
23361;BME280;11852;50.082;18.554;2023-03-13T02:40:11;98109.5;;;5.58;78.97
23361;BME280;11852;50.082;18.554;2023-03-13T02:41:17;98110.0;;;5.61;78.78
23361;BME280;11852;50.082;18.554;2023-03-13T02:42:24;98112.5;;;5.55;79.3
23361;BME280;11852;50.082;18.554;2023-03-13T02:43:32;98114.0;;;5.66;78.82
23361;BME280;11852;50.082;18.554;2023-03-13T02:44:39;98114.0;;;5.62;79.28
23361;BME280;11852;50.082;18.554;2023-03-13T02:47:00;98113.0;;;5.65;79.61
23361;BME280;11852;50.082;18.554;2023-03-13T02:48:08;98111.0;;;5.66;79.62
23361;BME280;11852;50.082;18.554;2023-03-13T02:49:36;98113.5;;;5.69;79.7
23361;BME280;11852;50.082;18.554;2023-03-13T02:50:23;98115.5;;;5.74;79.6
23361;BME280;11852;50.082;18.554;2023-03-13T02:51:31;98118.5;;;5.76;79.65
23361;BME280;11852;50.082;18.554;2023-03-13T02:52:47;98113.5;;;5.67;80.13
23361;BME280;11852;50.082;18.554;2023-03-13T02:53:50;98113.0;;;5.69;80.31
23361;BME280;11852;50.082;18.554;2023-03-13T02:55:01;98118.01;;;5.75;79.92
23361;BME280;11852;50.082;18.554;2023-03-13T02:56:05;98112.5;;;5.66;80.47
23361;BME280;11852;50.082;18.554;2023-03-13T02:57:13;98114.0;;;5.64;80.6
23361;BME280;11852;50.082;18.554;2023-03-13T02:58:22;98114.0;;;5.8;80.04
23361;BME280;11852;50.082;18.554;2023-03-13T02:59:26;98111.5;;;5.76;80.21
23361;BME280;11852;50.082;18.554;2023-03-13T03:00:33;98116.0;;;5.7;80.63
23361;BME280;11852;50.082;18.554;2023-03-13T03:01:40;98120.0;;;5.66;80.87
23361;BME280;11852;50.082;18.554;2023-03-13T03:02:47;98121.0;;;5.65;81.01
23361;BME280;11852;50.082;18.554;2023-03-13T03:03:53;98123.5;;;5.72;80.72
23361;BME280;11852;50.082;18.554;2023-03-13T03:05:00;98120.49;;;5.72;80.65
23361;BME280;11852;50.082;18.554;2023-03-13T03:06:07;98118.5;;;5.64;81.18
23361;BME280;11852;50.082;18.554;2023-03-13T03:07:14;98119.5;;;5.77;80.85
23361;BME280;11852;50.082;18.554;2023-03-13T03:08:21;98117.5;;;5.72;81.03
23361;BME280;11852;50.082;18.554;2023-03-13T03:09:28;98118.5;;;5.74;80.93
23361;BME280;11852;50.082;18.554;2023-03-13T03:10:35;98112.5;;;5.64;81.37
23361;BME280;11852;50.082;18.554;2023-03-13T03:11:41;98116.5;;;5.64;81.52
23361;BME280;11852;50.082;18.554;2023-03-13T03:12:48;98119.99;;;5.74;81.15
23361;BME280;11852;50.082;18.554;2023-03-13T03:13:57;98123.0;;;5.81;81.13
23361;BME280;11852;50.082;18.554;2023-03-13T03:15:04;98125.5;;;5.76;81.41
23361;BME280;11852;50.082;18.554;2023-03-13T03:16:12;98124.0;;;5.7;81.77
23361;BME280;11852;50.082;18.554;2023-03-13T03:17:18;98127.0;;;5.74;81.46
23361;BME280;11852;50.082;18.554;2023-03-13T03:18:25;98126.0;;;5.78;81.33
23361;BME280;11852;50.082;18.554;2023-03-13T03:19:32;98129.5;;;5.8;81.46
23361;BME280;11852;50.082;18.554;2023-03-13T03:20:39;98125.5;;;5.71;81.77
23361;BME280;11852;50.082;18.554;2023-03-13T03:21:46;98128.0;;;5.88;81.1
23361;BME280;11852;50.082;18.554;2023-03-13T03:22:53;98129.0;;;5.82;81.42
23361;BME280;11852;50.082;18.554;2023-03-13T03:24:00;98124.0;;;5.81;81.4
23361;BME280;11852;50.082;18.554;2023-03-13T03:25:07;98126.5;;;5.78;81.69
23361;BME280;11852;50.082;18.554;2023-03-13T03:26:14;98123.0;;;5.73;81.87
23361;BME280;11852;50.082;18.554;2023-03-13T03:27:20;98124.0;;;5.77;81.79
23361;BME280;11852;50.082;18.554;2023-03-13T03:28:27;98122.5;;;5.76;81.97
23361;BME280;11852;50.082;18.554;2023-03-13T03:29:34;98121.5;;;5.73;82.08
23361;BME280;11852;50.082;18.554;2023-03-13T03:30:41;98124.5;;;5.8;81.76
23361;BME280;11852;50.082;18.554;2023-03-13T03:31:48;98124.0;;;5.79;81.67
23361;BME280;11852;50.082;18.554;2023-03-13T03:32:55;98119.5;;;5.73;81.86
23361;BME280;11852;50.082;18.554;2023-03-13T03:34:02;98118.5;;;5.76;81.59
23361;BME280;11852;50.082;18.554;2023-03-13T03:35:09;98117.01;;;5.86;81.1
23361;BME280;11852;50.082;18.554;2023-03-13T03:36:19;98123.5;;;5.78;81.52
23361;BME280;11852;50.082;18.554;2023-03-13T03:37:24;98121.5;;;5.78;81.6
23361;BME280;11852;50.082;18.554;2023-03-13T03:38:31;98117.5;;;5.71;82.06
23361;BME280;11852;50.082;18.554;2023-03-13T03:39:38;98116.0;;;5.74;81.74
23361;BME280;11852;50.082;18.554;2023-03-13T03:40:45;98114.0;;;5.78;81.53
23361;BME280;11852;50.082;18.554;2023-03-13T03:41:53;98110.0;;;5.8;81.4
23361;BME280;11852;50.082;18.554;2023-03-13T03:43:00;98111.0;;;5.82;81.32
23361;BME280;11852;50.082;18.554;2023-03-13T03:44:08;98109.0;;;5.78;81.55
23361;BME280;11852;50.082;18.554;2023-03-13T03:45:15;98106.0;;;5.84;81.44
23361;BME280;11852;50.082;18.554;2023-03-13T03:46:22;98106.99;;;5.93;81.04
23361;BME280;11852;50.082;18.554;2023-03-13T03:47:29;98108.0;;;5.89;81.13
23361;BME280;11852;50.082;18.554;2023-03-13T03:48:35;98111.0;;;5.89;81.15
23361;BME280;11852;50.082;18.554;2023-03-13T03:49:42;98114.5;;;5.82;81.47
23361;BME280;11852;50.082;18.554;2023-03-13T03:50:49;98111.5;;;5.84;81.32
23361;BME280;11852;50.082;18.554;2023-03-13T03:51:57;98116.5;;;5.86;81.31
23361;BME280;11852;50.082;18.554;2023-03-13T03:53:04;98119.0;;;5.88;81.32
23361;BME280;11852;50.082;18.554;2023-03-13T03:54:11;98112.0;;;5.81;81.49
23361;BME280;11852;50.082;18.554;2023-03-13T03:55:18;98111.5;;;5.88;81.12
23361;BME280;11852;50.082;18.554;2023-03-13T03:56:24;98111.5;;;5.86;81.19
23361;BME280;11852;50.082;18.554;2023-03-13T03:57:31;98111.0;;;5.95;80.82
23361;BME280;11852;50.082;18.554;2023-03-13T03:58:38;98104.5;;;5.98;80.69
23361;BME280;11852;50.082;18.554;2023-03-13T03:59:45;98105.01;;;6.01;80.62
23361;BME280;11852;50.082;18.554;2023-03-13T04:00:52;98110.5;;;5.89;81.13
23361;BME280;11852;50.082;18.554;2023-03-13T04:01:58;98107.99;;;5.91;80.99
23361;BME280;11852;50.082;18.554;2023-03-13T04:03:06;98104.5;;;5.89;81.01
23361;BME280;11852;50.082;18.554;2023-03-13T04:04:13;98102.0;;;5.89;81.05
23361;BME280;11852;50.082;18.554;2023-03-13T04:05:20;98099.0;;;6.02;80.46
23361;BME280;11852;50.082;18.554;2023-03-13T04:06:26;98099.5;;;5.94;80.79
23361;BME280;11852;50.082;18.554;2023-03-13T04:07:33;98097.5;;;5.93;80.8
23361;BME280;11852;50.082;18.554;2023-03-13T04:08:40;98094.0;;;5.99;80.49
23361;BME280;11852;50.082;18.554;2023-03-13T04:09:47;98093.5;;;5.93;80.77
23361;BME280;11852;50.082;18.554;2023-03-13T04:10:54;98092.5;;;5.91;80.82
23361;BME280;11852;50.082;18.554;2023-03-13T04:12:01;98102.0;;;5.97;80.51
23361;BME280;11852;50.082;18.554;2023-03-13T04:13:07;98101.5;;;6.04;80.2
23361;BME280;11852;50.082;18.554;2023-03-13T04:14:16;98102.5;;;6.01;80.42
23361;BME280;11852;50.082;18.554;2023-03-13T04:15:22;98096.0;;;6.05;80.0
23361;BME280;11852;50.082;18.554;2023-03-13T04:16:30;98097.5;;;6.03;80.06
23361;BME280;11852;50.082;18.554;2023-03-13T04:17:37;98098.5;;;5.95;80.43
23361;BME280;11852;50.082;18.554;2023-03-13T04:18:44;98090.0;;;5.97;80.31
23361;BME280;11852;50.082;18.554;2023-03-13T04:19:51;98096.0;;;5.96;80.47
23361;BME280;11852;50.082;18.554;2023-03-13T04:21:01;98091.5;;;5.99;80.21
23361;BME280;11852;50.082;18.554;2023-03-13T04:22:07;98096.0;;;6.01;80.17
23361;BME280;11852;50.082;18.554;2023-03-13T04:23:14;98093.5;;;5.95;80.32
23361;BME280;11852;50.082;18.554;2023-03-13T04:24:21;98098.0;;;6.01;80.16
23361;BME280;11852;50.082;18.554;2023-03-13T04:25:28;98094.0;;;6.08;79.87
23361;BME280;11852;50.082;18.554;2023-03-13T04:26:34;98089.5;;;5.99;80.13
23361;BME280;11852;50.082;18.554;2023-03-13T04:27:41;98091.5;;;5.92;80.33
23361;BME280;11852;50.082;18.554;2023-03-13T04:28:48;98090.5;;;5.93;80.16
23361;BME280;11852;50.082;18.554;2023-03-13T04:29:55;98091.5;;;5.89;80.35
23361;BME280;11852;50.082;18.554;2023-03-13T04:31:02;98094.5;;;5.97;80.12
23361;BME280;11852;50.082;18.554;2023-03-13T04:32:09;98094.49;;;5.99;80.1
23361;BME280;11852;50.082;18.554;2023-03-13T04:33:15;98091.5;;;5.98;80.06
23361;BME280;11852;50.082;18.554;2023-03-13T04:34:22;98089.5;;;5.98;80.0
23361;BME280;11852;50.082;18.554;2023-03-13T04:35:29;98090.5;;;5.94;80.1
23361;BME280;11852;50.082;18.554;2023-03-13T04:36:36;98091.0;;;6.02;79.74
23361;BME280;11852;50.082;18.554;2023-03-13T04:37:43;98092.0;;;5.97;79.91
23361;BME280;11852;50.082;18.554;2023-03-13T04:38:50;98090.5;;;5.97;79.79
23361;BME280;11852;50.082;18.554;2023-03-13T04:39:57;98086.5;;;6.02;79.71
23361;BME280;11852;50.082;18.554;2023-03-13T04:41:04;98086.0;;;6.01;79.63
23361;BME280;11852;50.082;18.554;2023-03-13T04:42:11;98089.5;;;6.03;79.51
23361;BME280;11852;50.082;18.554;2023-03-13T04:43:17;98086.5;;;5.98;79.69
23361;BME280;11852;50.082;18.554;2023-03-13T04:44:24;98085.5;;;6.04;79.39
23361;BME280;11852;50.082;18.554;2023-03-13T04:45:31;98087.5;;;6.03;79.38
23361;BME280;11852;50.082;18.554;2023-03-13T04:46:38;98082.0;;;5.91;80.0
23361;BME280;11852;50.082;18.554;2023-03-13T04:47:45;98082.5;;;5.97;79.71
23361;BME280;11852;50.082;18.554;2023-03-13T04:48:53;98081.5;;;5.95;79.68
23361;BME280;11852;50.082;18.554;2023-03-13T04:50:00;98080.5;;;5.88;79.88
23361;BME280;11852;50.082;18.554;2023-03-13T04:51:08;98085.0;;;6.07;79.21
23361;BME280;11852;50.082;18.554;2023-03-13T04:52:14;98085.0;;;6.02;79.42
23361;BME280;11852;50.082;18.554;2023-03-13T04:53:21;98081.0;;;5.91;79.79
23361;BME280;11852;50.082;18.554;2023-03-13T04:54:28;98079.0;;;5.94;79.62
23361;BME280;11852;50.082;18.554;2023-03-13T04:55:34;98080.5;;;5.97;79.53
23361;BME280;11852;50.082;18.554;2023-03-13T04:56:42;98081.01;;;5.91;79.7
23361;BME280;11852;50.082;18.554;2023-03-13T04:57:48;98086.0;;;5.91;79.65
23361;BME280;11852;50.082;18.554;2023-03-13T04:58:55;98085.0;;;5.91;79.57
23361;BME280;11852;50.082;18.554;2023-03-13T05:00:03;98084.5;;;5.99;79.46
23361;BME280;11852;50.082;18.554;2023-03-13T05:01:09;98085.0;;;6.0;79.37
23361;BME280;11852;50.082;18.554;2023-03-13T05:02:16;98081.0;;;5.95;79.46
23361;BME280;11852;50.082;18.554;2023-03-13T05:03:23;98083.0;;;5.96;79.45
23361;BME280;11852;50.082;18.554;2023-03-13T05:04:30;98082.0;;;6.0;79.33
23361;BME280;11852;50.082;18.554;2023-03-13T05:05:37;98080.0;;;5.97;79.48
23361;BME280;11852;50.082;18.554;2023-03-13T05:06:44;98084.5;;;6.08;79.04
23361;BME280;11852;50.082;18.554;2023-03-13T05:07:53;98078.5;;;6.05;79.11
23361;BME280;11852;50.082;18.554;2023-03-13T05:09:00;98078.5;;;5.93;79.62
23361;BME280;11852;50.082;18.554;2023-03-13T05:10:07;98080.5;;;5.99;79.4
23361;BME280;11852;50.082;18.554;2023-03-13T05:11:16;98079.0;;;5.98;79.34
23361;BME280;11852;50.082;18.554;2023-03-13T05:12:24;98087.0;;;6.02;79.26
23361;BME280;11852;50.082;18.554;2023-03-13T05:13:31;98088.0;;;5.9;79.84
23361;BME280;11852;50.082;18.554;2023-03-13T05:14:39;98088.5;;;6.0;79.51
23361;BME280;11852;50.082;18.554;2023-03-13T05:15:46;98091.5;;;5.98;79.61
23361;BME280;11852;50.082;18.554;2023-03-13T05:16:53;98089.5;;;6.05;79.27
23361;BME280;11852;50.082;18.554;2023-03-13T05:18:00;98092.01;;;6.05;79.3
23361;BME280;11852;50.082;18.554;2023-03-13T05:19:08;98093.0;;;6.09;79.07
23361;BME280;11852;50.082;18.554;2023-03-13T05:20:15;98093.5;;;6.02;79.58
23361;BME280;11852;50.082;18.554;2023-03-13T05:21:22;98095.0;;;6.01;79.65
23361;BME280;11852;50.082;18.554;2023-03-13T05:22:28;98092.5;;;5.93;79.9
23361;BME280;11852;50.082;18.554;2023-03-13T05:23:35;98093.5;;;5.99;79.67
23361;BME280;11852;50.082;18.554;2023-03-13T05:24:42;98092.01;;;5.95;79.7
23361;BME280;11852;50.082;18.554;2023-03-13T05:25:49;98089.5;;;5.93;79.93
23361;BME280;11852;50.082;18.554;2023-03-13T05:26:56;98092.51;;;6.01;79.62
23361;BME280;11852;50.082;18.554;2023-03-13T05:28:02;98092.01;;;5.97;79.76
23361;BME280;11852;50.082;18.554;2023-03-13T05:29:09;98091.0;;;6.13;79.24
23361;BME280;11852;50.082;18.554;2023-03-13T05:30:16;98089.0;;;6.12;79.36
23361;BME280;11852;50.082;18.554;2023-03-13T05:31:23;98090.0;;;5.92;80.13
23361;BME280;11852;50.082;18.554;2023-03-13T05:32:30;98091.5;;;6.02;79.88
23361;BME280;11852;50.082;18.554;2023-03-13T05:33:37;98087.0;;;6.09;79.68
23361;BME280;11852;50.082;18.554;2023-03-13T05:34:44;98086.5;;;6.07;79.75
23361;BME280;11852;50.082;18.554;2023-03-13T05:35:51;98088.0;;;6.02;79.94
23361;BME280;11852;50.082;18.554;2023-03-13T05:36:58;98090.0;;;5.96;80.13
23361;BME280;11852;50.082;18.554;2023-03-13T05:38:04;98090.5;;;6.02;79.93
23361;BME280;11852;50.082;18.554;2023-03-13T05:39:11;98085.5;;;6.01;79.94
23361;BME280;11852;50.082;18.554;2023-03-13T05:40:18;98086.0;;;6.15;79.42
23361;BME280;11852;50.082;18.554;2023-03-13T05:41:26;98087.5;;;6.16;79.43
23361;BME280;11852;50.082;18.554;2023-03-13T05:42:33;98082.99;;;6.16;79.41
23361;BME280;11852;50.082;18.554;2023-03-13T05:43:39;98085.5;;;6.11;79.6
23361;BME280;11852;50.082;18.554;2023-03-13T05:44:46;98078.5;;;6.18;79.46
23361;BME280;11852;50.082;18.554;2023-03-13T05:45:54;98078.5;;;6.16;79.43
23361;BME280;11852;50.082;18.554;2023-03-13T05:47:01;98074.0;;;6.09;79.87
23361;BME280;11852;50.082;18.554;2023-03-13T05:48:07;98076.5;;;6.16;79.54
23361;BME280;11852;50.082;18.554;2023-03-13T05:49:14;98075.0;;;6.3;79.02
23361;BME280;11852;50.082;18.554;2023-03-13T05:50:21;98073.0;;;6.22;79.49
23361;BME280;11852;50.082;18.554;2023-03-13T05:51:29;98074.5;;;6.31;79.16
23361;BME280;11852;50.082;18.554;2023-03-13T05:52:36;98074.0;;;6.23;79.32
23361;BME280;11852;50.082;18.554;2023-03-13T05:53:43;98072.5;;;6.24;79.29
23361;BME280;11852;50.082;18.554;2023-03-13T05:54:49;98072.5;;;6.34;79.04
23361;BME280;11852;50.082;18.554;2023-03-13T05:55:56;98073.0;;;6.43;78.64
23361;BME280;11852;50.082;18.554;2023-03-13T05:57:03;98073.0;;;6.54;78.32
23361;BME280;11852;50.082;18.554;2023-03-13T05:58:10;98072.5;;;6.39;78.94
23361;BME280;11852;50.082;18.554;2023-03-13T05:59:17;98072.0;;;6.41;78.83
23361;BME280;11852;50.082;18.554;2023-03-13T06:00:24;98077.0;;;6.49;78.6
23361;BME280;11852;50.082;18.554;2023-03-13T06:01:31;98073.5;;;6.47;78.7
23361;BME280;11852;50.082;18.554;2023-03-13T06:02:37;98068.0;;;6.51;78.58
23361;BME280;11852;50.082;18.554;2023-03-13T06:03:44;98065.5;;;6.45;78.64
23361;BME280;11852;50.082;18.554;2023-03-13T06:04:52;98068.5;;;6.54;78.48
23361;BME280;11852;50.082;18.554;2023-03-13T06:05:59;98067.0;;;6.61;78.1
23361;BME280;11852;50.082;18.554;2023-03-13T06:07:06;98064.0;;;6.6;78.27
23361;BME280;11852;50.082;18.554;2023-03-13T06:08:13;98069.0;;;6.63;78.35
23361;BME280;11852;50.082;18.554;2023-03-13T06:09:20;98064.0;;;6.6;78.46
23361;BME280;11852;50.082;18.554;2023-03-13T06:10:26;98063.0;;;6.73;77.93